TNCC/CUR METAR and TAF weather

Enter ICAO airport designator
Station Type Date Time Source
TNCC METAR 2019/05/25 15:01 UTC NOAA

TNCC 251501Z 10011KT 9999 SCT019 30/24 Q1012 NOSIG=


Station Type Date Time Source
TNCC Decoded METAR 2019/05/25 15:01 UTC NOAA

Hato Airport, Curacao, Netherlands Antilles (TNCC) 12-12N 068-58W 67M
May 25, 2019 - 11:01 AM EDT / 2019.05.25 1501 UTC
Wind: from the E (100 degrees) at 13 MPH (11 KT):0
Visibility: greater than 7 mile(s):0
Sky conditions: partly cloudy
Temperature: 86 F (30 C)
Heat index: 95.0 F (35.0 C):1
Dew Point: 75 F (24 C)
Relative Humidity: 70%
Pressure (altimeter): 29.88 in. Hg (1012 hPa)
ob: TNCC 251501Z 10011KT 9999 SCT019 30/24 Q1012 NOSIG=
cycle: 15

Station Type Date Time Source
TNCC TAF 2019/05/25 18:35 UTC NOAA

TAF TNCC 251600Z 2518/2618 10014KT 9999 SCT020 PROB30
TEMPO 2603/2614 5000 SHRA BKN015

Example: see airport list